createdAt,value
2017-03-27T00:00:39.381Z,81.22
2017-03-27T00:01:34.409Z,81.22
2017-03-27T00:02:35.398Z,81.22
2017-03-27T00:03:35.455Z,81.50
2017-03-27T00:04:41.497Z,81.68
2017-03-27T00:05:36.471Z,81.81
2017-03-27T00:06:31.503Z,81.94
2017-03-27T00:07:32.559Z,82.00
2017-03-27T00:08:32.590Z,82.13
2017-03-27T00:09:32.623Z,82.47
2017-03-27T00:10:27.598Z,82.89
2017-03-27T00:11:21.655Z,82.90
2017-03-27T00:12:10.699Z,82.98
2017-03-27T00:13:10.724Z,82.93
2017-03-27T00:14:04.791Z,82.86
2017-03-27T00:15:04.805Z,82.87
2017-03-27T00:16:04.809Z,82.98
2017-03-27T00:16:59.858Z,83.05
2017-03-27T00:17:53.832Z,83.20
2017-03-27T00:18:53.842Z,83.34
2017-03-27T00:19:48.880Z,83.70
2017-03-27T00:20:44.634Z,83.73
2017-03-27T00:21:44.005Z,83.71
2017-03-27T00:22:38.951Z,83.76
2017-03-27T00:23:34.069Z,83.90
2017-03-27T00:24:23.068Z,83.87
2017-03-27T00:25:17.092Z,83.77
2017-03-27T00:26:12.157Z,83.86
2017-03-27T00:27:00.254Z,83.91
2017-03-27T00:27:48.222Z,84.02
2017-03-27T00:28:42.219Z,84.10
2017-03-27T00:29:36.211Z,84.12
2017-03-27T00:30:25.397Z,84.05
2017-03-27T00:31:19.638Z,84.02
2017-03-27T00:32:08.387Z,83.87
2017-03-27T00:33:03.430Z,83.96
2017-03-27T00:34:03.412Z,84.31
2017-03-27T00:34:58.499Z,84.70
2017-03-27T00:35:53.501Z,84.95
2017-03-27T00:36:42.575Z,85.07
2017-03-27T00:37:37.586Z,85.15
2017-03-27T00:38:37.596Z,85.23
2017-03-27T00:39:37.588Z,85.27
2017-03-27T00:40:32.634Z,85.36
2017-03-27T00:41:27.362Z,85.51
2017-03-27T00:42:26.710Z,85.68
2017-03-27T00:43:21.719Z,85.82
2017-03-27T00:44:16.771Z,85.89
2017-03-27T00:45:16.780Z,86.00
2017-03-27T00:46:11.797Z,86.04
2017-03-27T00:47:06.861Z,86.12
2017-03-27T00:48:07.988Z,86.32
2017-03-27T00:49:01.899Z,86.44
2017-03-27T00:49:55.865Z,86.65
2017-03-27T00:50:49.967Z,86.72
2017-03-27T00:51:37.975Z,86.78
2017-03-27T00:52:33.041Z,86.82
2017-03-27T00:53:21.159Z,86.86
2017-03-27T00:54:10.176Z,86.94
2017-03-27T00:55:10.123Z,86.96
2017-03-27T00:55:59.263Z,87.00
2017-03-27T00:56:47.239Z,86.99
2017-03-27T00:57:41.201Z,87.07
2017-03-27T00:58:41.666Z,87.07
2017-03-27T00:59:30.282Z,87.11
2017-03-27T01:00:24.324Z,87.19
2017-03-27T01:01:19.419Z,87.22
2017-03-27T01:02:07.420Z,87.36
2017-03-27T01:03:02.483Z,87.49
2017-03-27T01:03:51.573Z,87.58
2017-03-27T01:04:40.475Z,87.66
2017-03-27T01:05:34.523Z,87.72
2017-03-27T01:06:28.584Z,87.82
2017-03-27T01:07:22.589Z,87.85
2017-03-27T01:08:10.623Z,87.91
2017-03-27T01:08:59.726Z,87.97
2017-03-27T01:09:48.689Z,88.01
2017-03-27T01:10:42.690Z,88.09
2017-03-27T01:11:36.798Z,88.15
2017-03-27T01:12:25.809Z,88.22
2017-03-27T01:13:20.869Z,88.30
2017-03-27T01:14:08.878Z,88.33
2017-03-27T01:14:57.848Z,88.41
2017-03-27T01:15:51.936Z,88.40
2017-03-27T01:16:39.942Z,88.48
2017-03-27T01:17:29.036Z,88.49
2017-03-27T01:18:29.048Z,88.55
2017-03-27T01:19:23.301Z,88.60
2017-03-27T01:20:23.083Z,88.65
2017-03-27T01:21:11.144Z,88.70
2017-03-27T01:22:06.161Z,88.73
2017-03-27T01:23:00.156Z,88.79
2017-03-27T01:24:00.192Z,88.86
2017-03-27T01:24:48.252Z,88.90
2017-03-27T01:25:42.301Z,88.97
2017-03-27T01:26:37.307Z,89.00
2017-03-27T01:27:31.331Z,89.05
2017-03-27T01:28:31.411Z,89.08
2017-03-27T01:29:26.393Z,89.13
2017-03-27T01:30:32.418Z,89.15
2017-03-27T01:31:27.439Z,89.12
2017-03-27T01:32:21.586Z,89.08
2017-03-27T01:33:21.474Z,89.04
2017-03-27T01:34:21.516Z,89.03
2017-03-27T01:35:16.467Z,88.97
2017-03-27T01:36:10.601Z,88.93
2017-03-27T01:37:10.606Z,88.92
2017-03-27T01:38:05.610Z,88.99
2017-03-27T01:39:00.631Z,88.99
2017-03-27T01:40:01.687Z,88.97
2017-03-27T01:41:01.710Z,88.96
2017-03-27T01:42:01.799Z,88.96
2017-03-27T01:43:01.727Z,89.00
2017-03-27T01:44:02.768Z,89.07
2017-03-27T01:45:03.794Z,89.09
2017-03-27T01:45:57.855Z,89.12
2017-03-27T01:46:57.872Z,89.16
2017-03-27T01:47:52.894Z,89.15
2017-03-27T01:48:47.946Z,89.18
2017-03-27T01:49:47.944Z,89.22
2017-03-27T01:50:42.921Z,89.23
2017-03-27T01:51:38.046Z,89.27
2017-03-27T01:52:38.010Z,89.25
2017-03-27T01:53:33.076Z,89.28
2017-03-27T01:54:28.104Z,89.27
2017-03-27T01:55:29.094Z,89.26
2017-03-27T01:56:29.102Z,89.30
2017-03-27T01:57:29.167Z,89.34
2017-03-27T01:58:29.250Z,89.40
2017-03-27T01:59:30.254Z,89.42
2017-03-27T02:00:31.206Z,89.44
2017-03-27T02:01:25.292Z,89.44
2017-03-27T02:02:25.336Z,89.40
2017-03-27T02:03:20.361Z,89.44
2017-03-27T02:04:20.343Z,89.44
2017-03-27T02:05:20.389Z,89.39
2017-03-27T02:06:20.361Z,89.38
2017-03-27T02:07:14.392Z,89.38
2017-03-27T02:08:09.418Z,89.34
2017-03-27T02:09:09.465Z,89.32
2017-03-27T02:10:03.470Z,89.31
2017-03-27T02:10:58.552Z,89.28
2017-03-27T02:11:53.620Z,89.23
2017-03-27T02:12:47.567Z,89.18
2017-03-27T02:13:42.688Z,89.15
2017-03-27T02:14:43.611Z,89.06
2017-03-27T02:15:37.728Z,88.99
2017-03-27T02:16:26.669Z,88.87
2017-03-27T02:17:20.675Z,88.83
2017-03-27T02:18:08.797Z,88.75
2017-03-27T02:19:02.758Z,88.71
2017-03-27T02:19:51.869Z,88.64
2017-03-27T02:20:39.875Z,88.64
2017-03-27T02:21:34.917Z,88.57
2017-03-27T02:22:22.940Z,88.55
2017-03-27T02:23:11.138Z,88.48
2017-03-27T02:23:59.031Z,88.46
2017-03-27T02:24:47.104Z,88.43
2017-03-27T02:25:35.069Z,88.40
2017-03-27T02:26:23.087Z,88.39
2017-03-27T02:27:12.213Z,88.42
2017-03-27T02:28:00.200Z,88.38
2017-03-27T02:28:49.182Z,88.42
2017-03-27T02:29:37.295Z,88.42
2017-03-27T02:30:25.286Z,88.46
2017-03-27T02:31:26.300Z,88.48
2017-03-27T02:32:26.411Z,88.43
2017-03-27T02:33:26.428Z,88.45
2017-03-27T02:34:20.417Z,88.40
2017-03-27T02:35:20.362Z,88.38
2017-03-27T02:36:15.504Z,88.33
2017-03-27T02:37:10.487Z,88.31
2017-03-27T02:38:10.519Z,88.26
2017-03-27T02:39:05.494Z,88.19
2017-03-27T02:40:00.593Z,88.15
2017-03-27T02:41:00.627Z,88.08
2017-03-27T02:41:55.646Z,87.95
2017-03-27T02:42:55.616Z,87.84
2017-03-27T02:43:49.657Z,87.57
2017-03-27T02:44:49.636Z,87.24
2017-03-27T02:45:43.750Z,86.78
2017-03-27T02:46:49.723Z,86.31
2017-03-27T02:47:49.756Z,86.00
2017-03-27T02:48:44.805Z,85.82
2017-03-27T02:49:38.850Z,85.64
2017-03-27T02:50:39.866Z,85.49
2017-03-27T02:51:39.873Z,85.43
2017-03-27T02:52:34.959Z,85.37
2017-03-27T02:53:34.948Z,85.30
2017-03-27T02:54:28.965Z,85.23
2017-03-27T02:55:29.006Z,85.13
2017-03-27T02:56:24.013Z,85.04
2017-03-27T02:57:19.052Z,84.92
2017-03-27T02:58:20.092Z,84.89
2017-03-27T02:59:21.039Z,84.85
2017-03-27T03:00:16.114Z,84.83
2017-03-27T03:01:10.213Z,84.86
2017-03-27T03:02:10.187Z,84.86
2017-03-27T03:02:59.242Z,84.87
2017-03-27T03:03:47.240Z,84.86
2017-03-27T03:04:48.301Z,84.93
2017-03-27T03:05:42.360Z,84.94
2017-03-27T03:06:42.333Z,85.01
2017-03-27T03:07:37.388Z,85.07
2017-03-27T03:08:32.409Z,85.06
2017-03-27T03:09:38.393Z,85.08
2017-03-27T03:10:32.433Z,85.14
2017-03-27T03:11:27.491Z,85.17
2017-03-27T03:12:22.555Z,85.13
2017-03-27T03:13:11.584Z,85.12
2017-03-27T03:14:00.572Z,85.04
2017-03-27T03:15:06.621Z,85.02
2017-03-27T03:16:01.608Z,85.02
2017-03-27T03:16:55.590Z,84.92
2017-03-27T03:17:55.696Z,84.78
2017-03-27T03:18:49.693Z,84.62
2017-03-27T03:19:49.778Z,84.36
2017-03-27T03:20:49.864Z,84.18
2017-03-27T03:21:43.787Z,83.87
2017-03-27T03:22:32.843Z,83.68
2017-03-27T03:23:20.880Z,83.54
2017-03-27T03:24:08.920Z,83.44
2017-03-27T03:24:57.898Z,83.31
2017-03-27T03:25:51.950Z,83.27
2017-03-27T03:26:51.993Z,83.26
2017-03-27T03:27:46.011Z,83.16
2017-03-27T03:28:34.128Z,83.08
2017-03-27T03:29:22.137Z,83.02
2017-03-27T03:30:10.055Z,83.03
2017-03-27T03:31:10.125Z,83.03
2017-03-27T03:31:58.180Z,83.08
2017-03-27T03:32:46.169Z,83.18
2017-03-27T03:33:34.474Z,83.56
2017-03-27T03:34:23.298Z,83.98
2017-03-27T03:35:12.334Z,84.37
2017-03-27T03:36:01.374Z,84.61
2017-03-27T03:36:50.376Z,84.78
2017-03-27T03:37:38.422Z,84.85
2017-03-27T03:38:32.406Z,84.97
2017-03-27T03:39:27.513Z,85.08
2017-03-27T03:40:28.518Z,85.07
2017-03-27T03:41:28.531Z,85.06
2017-03-27T03:42:28.587Z,84.75
2017-03-27T03:43:23.637Z,84.26
2017-03-27T03:44:12.631Z,83.85
2017-03-27T03:45:07.680Z,83.45
2017-03-27T03:45:56.706Z,83.14
2017-03-27T03:46:50.721Z,82.95
2017-03-27T03:47:45.754Z,82.84
2017-03-27T03:48:33.800Z,82.73
2017-03-27T03:49:22.802Z,82.72
2017-03-27T03:50:11.842Z,82.71
2017-03-27T03:50:59.953Z,82.74
2017-03-27T03:51:48.936Z,82.75
2017-03-27T03:52:37.055Z,82.86
2017-03-27T03:53:25.068Z,82.95
2017-03-27T03:54:14.044Z,82.96
2017-03-27T03:55:02.163Z,82.95
2017-03-27T03:55:51.343Z,83.04
2017-03-27T03:56:45.165Z,83.08
2017-03-27T03:57:40.204Z,83.21
2017-03-27T03:58:35.264Z,83.30
2017-03-27T03:59:36.222Z,83.33
2017-03-27T04:00:31.275Z,83.34
2017-03-27T04:01:25.462Z,83.31
2017-03-27T04:02:13.350Z,83.27
2017-03-27T04:03:01.385Z,83.26
2017-03-27T04:03:50.384Z,83.29
2017-03-27T04:04:44.394Z,83.41
2017-03-27T04:05:39.458Z,83.62
2017-03-27T04:06:39.480Z,83.78
2017-03-27T04:07:39.581Z,83.83
2017-03-27T04:08:33.555Z,83.89
2017-03-27T04:09:28.534Z,83.74
2017-03-27T04:10:28.645Z,83.60
2017-03-27T04:11:22.680Z,83.59
2017-03-27T04:12:11.674Z,83.61
2017-03-27T04:13:00.721Z,83.62
2017-03-27T04:13:48.681Z,83.66
2017-03-27T04:14:36.778Z,83.76
2017-03-27T04:15:25.781Z,83.82
2017-03-27T04:16:25.821Z,83.75
2017-03-27T04:17:19.880Z,83.77
2017-03-27T04:18:19.925Z,83.78
2017-03-27T04:19:15.281Z,83.77
2017-03-27T04:20:09.944Z,83.81
2017-03-27T04:21:10.933Z,83.85
2017-03-27T04:22:10.978Z,83.90
2017-03-27T04:23:11.114Z,83.97
2017-03-27T04:24:11.084Z,84.15
2017-03-27T04:25:00.017Z,84.21
2017-03-27T04:25:55.126Z,84.30
2017-03-27T04:26:50.110Z,84.30
2017-03-27T04:27:45.232Z,84.32
2017-03-27T04:28:39.197Z,84.33
2017-03-27T04:29:34.208Z,84.21
2017-03-27T04:30:29.162Z,84.11
2017-03-27T04:31:29.615Z,83.42
2017-03-27T04:32:24.333Z,82.81
2017-03-27T04:33:19.326Z,82.49
2017-03-27T04:34:13.425Z,82.29
2017-03-27T04:35:08.416Z,82.13
2017-03-27T04:36:02.428Z,82.05
2017-03-27T04:37:02.419Z,81.75
2017-03-27T04:37:57.439Z,81.53
2017-03-27T04:38:57.517Z,81.35
2017-03-27T04:39:51.498Z,81.17
2017-03-27T04:40:51.592Z,80.97
2017-03-27T04:41:46.566Z,80.72
2017-03-27T04:42:40.602Z,80.18
2017-03-27T04:43:40.634Z,79.74
2017-03-27T04:44:34.645Z,79.52
2017-03-27T04:45:29.701Z,79.38
2017-03-27T04:46:23.701Z,79.38
2017-03-27T04:47:23.752Z,79.26
2017-03-27T04:48:18.793Z,79.10
2017-03-27T04:49:13.783Z,78.88
2017-03-27T04:50:14.788Z,78.84
2017-03-27T04:51:14.813Z,78.91
2017-03-27T04:52:14.910Z,78.94
2017-03-27T04:53:14.934Z,79.01
2017-03-27T04:54:09.924Z,79.13
2017-03-27T04:55:04.374Z,79.22
2017-03-27T04:55:58.004Z,79.30
2017-03-27T04:56:58.019Z,79.41
2017-03-27T04:57:47.163Z,79.59
2017-03-27T04:58:41.064Z,79.71
2017-03-27T04:59:36.062Z,79.82
2017-03-27T05:00:25.166Z,79.92
2017-03-27T05:01:13.158Z,80.02
2017-03-27T05:02:14.202Z,80.17
2017-03-27T05:03:14.250Z,80.24
2017-03-27T05:04:14.277Z,80.26
2017-03-27T05:05:14.265Z,80.28
2017-03-27T05:06:14.282Z,80.44
2017-03-27T05:07:14.319Z,80.39
2017-03-27T05:08:14.378Z,80.26
2017-03-27T05:09:14.412Z,80.17
2017-03-27T05:10:14.426Z,80.12
2017-03-27T05:11:14.407Z,80.09
2017-03-27T05:12:14.417Z,80.03
2017-03-27T05:13:14.478Z,80.02
2017-03-27T05:14:09.562Z,79.79
2017-03-27T05:14:58.596Z,79.60
2017-03-27T05:16:04.691Z,79.52
2017-03-27T05:16:59.613Z,79.41
2017-03-27T05:17:53.647Z,79.36
2017-03-27T05:18:48.791Z,79.27
2017-03-27T05:19:48.669Z,79.18
2017-03-27T05:20:48.688Z,79.10
2017-03-27T05:21:43.817Z,79.03
2017-03-27T05:22:32.820Z,78.96
2017-03-27T05:23:21.859Z,78.78
2017-03-27T05:24:16.967Z,78.56
2017-03-27T05:25:11.275Z,78.37
2017-03-27T05:25:58.941Z,78.23
2017-03-27T05:26:52.922Z,78.24
2017-03-27T05:27:52.966Z,78.17
2017-03-27T05:28:48.022Z,78.18
2017-03-27T05:29:36.043Z,78.21
2017-03-27T05:30:36.074Z,78.30
2017-03-27T05:31:25.341Z,78.34
2017-03-27T05:32:14.105Z,78.43
2017-03-27T05:33:09.234Z,78.54
2017-03-27T05:34:09.483Z,78.70
2017-03-27T05:35:04.192Z,78.79
2017-03-27T05:35:59.236Z,78.91
2017-03-27T05:36:53.307Z,78.96
2017-03-27T05:37:53.347Z,79.05
2017-03-27T05:38:48.360Z,79.16
2017-03-27T05:39:42.419Z,79.20
2017-03-27T05:40:42.901Z,79.35
2017-03-27T05:41:36.549Z,79.28
2017-03-27T05:42:36.467Z,79.04
2017-03-27T05:43:31.490Z,78.90
2017-03-27T05:44:26.617Z,78.96
2017-03-27T05:45:26.515Z,78.80
2017-03-27T05:46:20.506Z,78.53
2017-03-27T05:47:14.681Z,78.41
2017-03-27T05:48:16.170Z,78.04
2017-03-27T05:49:16.222Z,77.75
2017-03-27T05:50:16.270Z,77.46
2017-03-27T05:51:16.080Z,77.33
2017-03-27T05:52:21.716Z,77.19
2017-03-27T05:53:17.257Z,77.18
2017-03-27T05:54:10.770Z,77.27
2017-03-27T05:55:10.820Z,77.45
2017-03-27T05:56:05.845Z,77.53
2017-03-27T05:57:00.930Z,77.57
2017-03-27T05:58:01.020Z,77.50
2017-03-27T05:58:55.982Z,77.09
2017-03-27T05:59:49.934Z,76.65
2017-03-27T06:00:49.996Z,75.79
2017-03-27T06:01:44.002Z,74.69
2017-03-27T06:02:45.142Z,73.67
2017-03-27T06:03:46.248Z,73.46
2017-03-27T06:04:41.382Z,73.29
2017-03-27T06:05:41.228Z,71.77
2017-03-27T06:06:41.154Z,71.34
2017-03-27T06:07:41.193Z,70.33
2017-03-27T06:08:41.235Z,69.80
2017-03-27T06:09:41.623Z,69.40
2017-03-27T06:10:41.300Z,69.71
2017-03-27T06:11:41.271Z,69.59
2017-03-27T06:12:36.377Z,69.24
2017-03-27T06:13:31.369Z,69.19
2017-03-27T06:14:25.399Z,68.97
2017-03-27T06:15:19.843Z,69.10
2017-03-27T06:16:19.964Z,68.78
2017-03-27T06:17:14.517Z,68.35
2017-03-27T06:18:08.560Z,68.24
2017-03-27T06:19:03.600Z,67.69
2017-03-27T06:19:58.631Z,68.36
2017-03-27T06:20:47.677Z,66.83
2017-03-27T06:21:41.755Z,65.84
2017-03-27T06:22:41.737Z,65.82
2017-03-27T06:23:35.725Z,65.66
2017-03-27T06:24:35.821Z,65.04
2017-03-27T06:25:30.899Z,64.64
2017-03-27T06:26:24.891Z,64.78
2017-03-27T06:27:24.840Z,64.50
2017-03-27T06:28:18.904Z,64.11
2017-03-27T06:29:18.944Z,64.70
2017-03-27T06:30:07.993Z,67.69
2017-03-27T06:31:02.096Z,64.09
2017-03-27T06:32:02.183Z,63.43
2017-03-27T06:32:57.346Z,62.60
2017-03-27T06:33:52.122Z,63.25
2017-03-27T06:34:52.241Z,62.24
2017-03-27T06:35:47.196Z,61.66
2017-03-27T06:36:42.350Z,61.18
2017-03-27T06:37:36.315Z,60.95
2017-03-27T06:38:36.479Z,60.89
2017-03-27T06:39:31.300Z,60.87
2017-03-27T06:40:25.581Z,60.64
2017-03-27T06:41:25.525Z,60.35
2017-03-27T06:42:19.444Z,62.46
2017-03-27T06:43:19.578Z,61.81
2017-03-27T06:44:14.526Z,59.90
2017-03-27T06:45:08.615Z,61.70
2017-03-27T06:46:03.576Z,61.36
2017-03-27T06:46:59.169Z,58.09
2017-03-27T06:47:52.709Z,57.46
2017-03-27T06:48:52.721Z,57.66
2017-03-27T06:49:46.790Z,57.42
2017-03-27T06:50:47.843Z,56.58
2017-03-27T06:51:48.839Z,56.60
2017-03-27T06:52:49.895Z,57.04
2017-03-27T06:53:43.930Z,58.01
2017-03-27T06:54:43.967Z,57.53
2017-03-27T06:55:39.186Z,56.72
2017-03-27T06:56:33.968Z,58.99
2017-03-27T06:57:28.066Z,57.82
2017-03-27T06:58:28.112Z,57.69
2017-03-27T06:59:22.144Z,58.03
2017-03-27T07:00:23.178Z,56.73
2017-03-27T07:01:24.207Z,57.26
2017-03-27T07:02:24.250Z,56.80
2017-03-27T07:03:19.297Z,56.04
2017-03-27T07:04:19.316Z,58.52
2017-03-27T07:05:13.377Z,57.84
2017-03-27T07:06:13.531Z,56.75
2017-03-27T07:07:13.424Z,55.78
2017-03-27T07:08:19.531Z,55.50
2017-03-27T07:09:14.544Z,55.38
2017-03-27T07:10:09.509Z,54.97
2017-03-27T07:11:04.018Z,55.58
2017-03-27T07:12:04.042Z,54.09
2017-03-27T07:12:57.907Z,53.51
2017-03-27T07:13:57.711Z,53.50
2017-03-27T07:14:51.735Z,54.20
2017-03-27T07:15:51.861Z,53.99
2017-03-27T07:16:45.829Z,54.88
2017-03-27T07:17:45.884Z,54.13
2017-03-27T07:18:41.227Z,54.17
2017-03-27T07:19:36.510Z,55.45
2017-03-27T07:20:30.026Z,54.99
2017-03-27T07:21:30.101Z,55.23
2017-03-27T07:22:25.095Z,55.58
2017-03-27T07:23:20.131Z,54.55
2017-03-27T07:24:15.452Z,55.01
2017-03-27T07:25:16.197Z,54.28
2017-03-27T07:26:16.238Z,54.35
2017-03-27T07:27:05.494Z,54.99
2017-03-27T07:28:05.412Z,53.17
2017-03-27T07:29:00.413Z,52.66
2017-03-27T07:30:00.704Z,52.44
2017-03-27T07:30:55.441Z,51.77
2017-03-27T07:31:50.462Z,52.88
2017-03-27T07:32:50.577Z,53.99
2017-03-27T07:33:45.601Z,54.18
2017-03-27T07:34:40.003Z,52.20
2017-03-27T07:35:40.116Z,49.62
2017-03-27T07:36:33.787Z,50.41
2017-03-27T07:37:33.730Z,49.78
2017-03-27T07:38:28.817Z,49.43
2017-03-27T07:39:28.822Z,50.19
2017-03-27T07:40:23.884Z,48.46
2017-03-27T07:41:18.926Z,49.46
2017-03-27T07:42:13.459Z,49.68
2017-03-27T07:43:13.483Z,49.65
2017-03-27T07:44:08.049Z,50.24
2017-03-27T07:45:03.078Z,50.91
2017-03-27T07:45:58.107Z,48.42
2017-03-27T07:46:59.191Z,48.23
2017-03-27T07:48:00.212Z,48.47
2017-03-27T07:48:49.300Z,50.20
2017-03-27T07:49:44.667Z,48.27
2017-03-27T07:50:38.327Z,47.87
2017-03-27T07:51:38.411Z,49.03
2017-03-27T07:52:33.408Z,49.07
2017-03-27T07:53:28.493Z,48.82
2017-03-27T07:54:28.498Z,48.92
2017-03-27T07:55:22.553Z,48.64
2017-03-27T07:56:22.677Z,48.23
2017-03-27T07:57:17.626Z,48.83
2017-03-27T07:58:11.670Z,48.42
2017-03-27T07:59:11.734Z,48.49
2017-03-27T08:00:06.778Z,49.90
2017-03-27T08:01:01.846Z,48.46
2017-03-27T08:01:50.802Z,48.22
2017-03-27T08:02:46.757Z,48.23
2017-03-27T08:03:46.327Z,48.97
2017-03-27T08:04:41.020Z,48.12
2017-03-27T08:05:35.016Z,48.87
2017-03-27T08:06:29.070Z,48.40
2017-03-27T08:07:24.093Z,47.66
2017-03-27T08:08:13.506Z,50.06
2017-03-27T08:09:01.263Z,50.05
2017-03-27T08:09:55.279Z,48.78
2017-03-27T08:10:49.724Z,45.04
2017-03-27T08:11:50.616Z,42.82
2017-03-27T08:12:44.581Z,43.04
2017-03-27T08:13:38.697Z,41.92
2017-03-27T08:14:38.518Z,42.77
2017-03-27T08:15:33.566Z,43.61
2017-03-27T08:16:28.732Z,44.70
2017-03-27T08:17:28.915Z,44.01
2017-03-27T08:18:23.110Z,44.65
2017-03-27T08:19:18.167Z,45.09
2017-03-27T08:20:18.305Z,45.82
2017-03-27T08:21:11.855Z,46.04
2017-03-27T08:22:05.901Z,47.17
2017-03-27T08:23:05.936Z,48.15
2017-03-27T08:23:59.950Z,46.21
2017-03-27T08:24:54.269Z,45.74
2017-03-27T08:25:48.112Z,46.13
2017-03-27T08:26:48.114Z,44.89
2017-03-27T08:27:43.185Z,44.03
2017-03-27T08:28:38.193Z,44.24
2017-03-27T08:29:38.314Z,43.67
2017-03-27T08:30:32.320Z,43.47
2017-03-27T08:31:32.358Z,43.31
2017-03-27T08:32:27.408Z,43.67
2017-03-27T08:33:21.652Z,41.87
2017-03-27T08:34:21.587Z,42.99
2017-03-27T08:35:17.630Z,42.65
2017-03-27T08:36:05.879Z,43.06
2017-03-27T08:37:00.668Z,43.59
2017-03-27T08:37:48.871Z,44.04
2017-03-27T08:38:48.723Z,43.00
2017-03-27T08:39:43.791Z,43.67
2017-03-27T08:40:38.856Z,42.60
2017-03-27T08:41:39.156Z,42.22
2017-03-27T08:42:33.971Z,41.68
2017-03-27T08:43:28.975Z,41.56
2017-03-27T08:44:23.118Z,42.55
2017-03-27T08:45:23.072Z,41.92
2017-03-27T08:46:18.127Z,42.03
2017-03-27T08:47:13.490Z,42.41
2017-03-27T08:48:13.217Z,42.18
2017-03-27T08:49:08.274Z,42.10
2017-03-27T08:50:02.331Z,41.16
2017-03-27T08:50:56.872Z,41.93
2017-03-27T08:51:50.434Z,41.68
2017-03-27T08:52:51.795Z,42.27
2017-03-27T08:53:51.549Z,43.59
2017-03-27T08:54:51.684Z,41.69
2017-03-27T08:55:45.601Z,39.38
2017-03-27T08:56:45.694Z,40.20
2017-03-27T08:57:39.710Z,39.59
2017-03-27T08:58:33.717Z,40.03
2017-03-27T08:59:33.891Z,41.50
2017-03-27T09:00:29.217Z,43.14
2017-03-27T09:01:30.265Z,40.80
2017-03-27T09:02:30.533Z,40.23
2017-03-27T09:03:23.977Z,39.28
2017-03-27T09:04:24.403Z,39.97
2017-03-27T09:05:19.155Z,39.05
2017-03-27T09:06:08.148Z,39.93
2017-03-27T09:07:03.153Z,39.12
2017-03-27T09:08:03.263Z,38.44
2017-03-27T09:08:58.549Z,38.18
2017-03-27T09:09:52.755Z,40.25
2017-03-27T09:10:47.393Z,36.99
2017-03-27T09:11:47.425Z,38.39
2017-03-27T09:12:42.516Z,38.69
2017-03-27T09:13:36.498Z,38.93
2017-03-27T09:14:30.874Z,36.21
2017-03-27T09:15:31.042Z,35.57
2017-03-27T09:16:25.687Z,35.19
2017-03-27T09:17:19.917Z,35.07
2017-03-27T09:18:19.868Z,36.37
2017-03-27T09:19:14.860Z,38.20
2017-03-27T09:20:09.897Z,39.63
2017-03-27T09:21:04.329Z,38.47
2017-03-27T09:22:04.345Z,41.02
2017-03-27T09:22:59.386Z,37.60
2017-03-27T09:23:54.175Z,37.97
2017-03-27T09:24:49.167Z,38.14
2017-03-27T09:25:55.191Z,38.01
2017-03-27T09:26:50.334Z,37.07
2017-03-27T09:27:50.415Z,36.70
2017-03-27T09:28:50.336Z,37.96
2017-03-27T09:29:44.404Z,37.44
2017-03-27T09:30:44.525Z,37.10
2017-03-27T09:31:38.853Z,36.98
2017-03-27T09:32:38.957Z,36.90
2017-03-27T09:33:33.600Z,38.05
2017-03-27T09:34:33.673Z,38.56
2017-03-27T09:35:27.699Z,41.76
2017-03-27T09:36:27.733Z,38.06
2017-03-27T09:37:22.810Z,37.56
2017-03-27T09:38:18.188Z,38.25
2017-03-27T09:39:07.283Z,38.48
2017-03-27T09:40:02.138Z,38.00
2017-03-27T09:41:01.975Z,37.25
2017-03-27T09:41:57.183Z,36.90
2017-03-27T09:42:51.198Z,36.86
2017-03-27T09:43:51.459Z,38.20
2017-03-27T09:44:45.236Z,37.56
2017-03-27T09:45:39.668Z,38.55
2017-03-27T09:46:34.392Z,35.85
2017-03-27T09:47:34.368Z,35.01
2017-03-27T09:48:34.516Z,35.29
2017-03-27T09:49:34.816Z,36.20
2017-03-27T09:50:22.588Z,36.02
2017-03-27T09:51:17.623Z,33.33
2017-03-27T09:52:12.000Z,34.87
2017-03-27T09:53:00.722Z,35.75
2017-03-27T09:53:55.767Z,35.26
2017-03-27T09:54:55.801Z,34.78
2017-03-27T09:55:44.789Z,35.31
2017-03-27T09:56:39.000Z,36.38
2017-03-27T09:57:38.972Z,37.90
2017-03-27T09:58:33.218Z,36.04
2017-03-27T09:59:33.086Z,36.05
2017-03-27T10:00:28.193Z,36.26
2017-03-27T10:01:22.439Z,35.51
2017-03-27T10:02:22.258Z,35.62
2017-03-27T10:03:17.257Z,36.73
2017-03-27T10:04:12.871Z,37.44
2017-03-27T10:05:06.389Z,36.71
2017-03-27T10:06:01.513Z,35.55
2017-03-27T10:07:01.463Z,36.36
2017-03-27T10:08:01.505Z,35.99
2017-03-27T10:09:01.550Z,36.39
2017-03-27T10:10:01.651Z,35.38
2017-03-27T10:10:55.710Z,34.56
2017-03-27T10:11:55.966Z,37.30
2017-03-27T10:12:50.847Z,35.59
2017-03-27T10:13:46.203Z,36.47
2017-03-27T10:14:39.869Z,37.71
2017-03-27T10:15:40.903Z,37.51
2017-03-27T10:16:35.972Z,35.23
2017-03-27T10:17:36.290Z,34.67
2017-03-27T10:18:31.083Z,37.30
2017-03-27T10:19:26.073Z,37.43
2017-03-27T10:20:27.141Z,37.56
2017-03-27T10:21:27.184Z,36.62
2017-03-27T10:22:21.213Z,36.34
2017-03-27T10:23:21.321Z,37.40
2017-03-27T10:24:15.583Z,33.98
2017-03-27T10:25:15.425Z,33.79
2017-03-27T10:26:10.453Z,33.23
2017-03-27T10:27:04.477Z,34.77
2017-03-27T10:27:59.558Z,33.39
2017-03-27T10:28:48.021Z,32.34
2017-03-27T10:29:41.704Z,31.95
2017-03-27T10:30:36.844Z,33.98
2017-03-27T10:31:36.762Z,32.14
2017-03-27T10:32:31.863Z,32.49
2017-03-27T10:33:31.858Z,32.16
2017-03-27T10:34:27.276Z,31.34
2017-03-27T10:35:21.948Z,31.73
2017-03-27T10:36:22.202Z,32.67
2017-03-27T10:37:16.116Z,34.00
2017-03-27T10:38:16.159Z,35.81
2017-03-27T10:39:16.153Z,33.56
2017-03-27T10:40:10.209Z,33.16
2017-03-27T10:41:10.339Z,35.06
2017-03-27T10:42:05.265Z,35.55
2017-03-27T10:43:05.368Z,34.02
2017-03-27T10:44:00.387Z,33.38
2017-03-27T10:44:55.423Z,33.47
2017-03-27T10:45:44.795Z,33.78
2017-03-27T10:46:44.558Z,33.91
2017-03-27T10:47:44.608Z,36.74
2017-03-27T10:48:39.652Z,35.69
2017-03-27T10:49:39.685Z,35.03
2017-03-27T10:50:34.769Z,33.37
2017-03-27T10:51:29.154Z,32.55
2017-03-27T10:52:28.965Z,31.78
2017-03-27T10:53:23.274Z,33.35
2017-03-27T10:54:23.284Z,33.90
2017-03-27T10:55:17.973Z,31.51
2017-03-27T10:56:12.022Z,33.19
2017-03-27T10:57:12.344Z,32.56
2017-03-27T10:58:06.153Z,32.66
2017-03-27T10:59:06.201Z,32.58
2017-03-27T11:00:01.323Z,33.27
2017-03-27T11:00:55.660Z,33.34
2017-03-27T11:01:50.359Z,32.94
2017-03-27T11:02:45.713Z,32.60
2017-03-27T11:03:39.454Z,32.67
2017-03-27T11:04:39.482Z,31.75
2017-03-27T11:05:34.551Z,30.80
2017-03-27T11:06:28.733Z,30.22
2017-03-27T11:07:17.641Z,30.69
2017-03-27T11:08:17.969Z,30.33
2017-03-27T11:09:11.755Z,34.11
2017-03-27T11:10:06.844Z,29.74
2017-03-27T11:11:07.031Z,29.98
2017-03-27T11:12:01.909Z,30.96
2017-03-27T11:12:57.397Z,30.75
2017-03-27T11:13:57.366Z,31.66
2017-03-27T11:14:52.121Z,31.13
2017-03-27T11:15:47.133Z,32.29
2017-03-27T11:16:41.177Z,31.98
2017-03-27T11:17:35.246Z,34.31
2017-03-27T11:18:30.650Z,34.12
2017-03-27T11:19:24.286Z,32.83
2017-03-27T11:20:19.478Z,32.71
2017-03-27T11:21:13.403Z,30.71
2017-03-27T11:22:02.720Z,31.86
2017-03-27T11:22:56.533Z,30.88
2017-03-27T11:23:56.586Z,29.10
2017-03-27T11:24:50.700Z,29.17
2017-03-27T11:25:50.769Z,30.82
2017-03-27T11:26:44.752Z,32.58
2017-03-27T11:27:44.985Z,32.05
2017-03-27T11:28:33.305Z,32.14
2017-03-27T11:29:33.313Z,31.92
2017-03-27T11:30:27.206Z,31.70
2017-03-27T11:31:27.937Z,31.84
2017-03-27T11:32:28.098Z,31.86
2017-03-27T11:33:23.066Z,32.61
2017-03-27T11:34:17.432Z,31.98
2017-03-27T11:35:17.160Z,32.52
2017-03-27T11:36:12.218Z,35.64
2017-03-27T11:37:06.382Z,35.47
2017-03-27T11:37:55.306Z,34.85
2017-03-27T11:38:44.372Z,32.78
2017-03-27T11:39:33.806Z,32.11
2017-03-27T11:40:28.515Z,28.40
2017-03-27T11:41:23.847Z,30.25
2017-03-27T11:42:23.664Z,28.82
2017-03-27T11:43:18.663Z,27.44
2017-03-27T11:44:13.724Z,27.75
2017-03-27T11:45:01.845Z,29.33
2017-03-27T11:46:02.191Z,27.12
2017-03-27T11:47:02.230Z,27.36
2017-03-27T11:47:49.900Z,29.25
2017-03-27T11:48:44.986Z,28.48
2017-03-27T11:49:38.999Z,27.24
2017-03-27T11:50:33.089Z,27.01
2017-03-27T11:51:27.174Z,29.03
2017-03-27T11:52:28.319Z,25.25
2017-03-27T11:53:22.196Z,25.89
2017-03-27T11:54:22.254Z,27.02
2017-03-27T11:55:17.336Z,26.37
2017-03-27T11:56:12.363Z,27.31
2017-03-27T11:57:06.823Z,27.03